Time;durP1;ratioP1;P1;durP2;ratioP2;P2;SDS_P1;SDS_P2;PMS_P1;PMS_P2;Temp;Humidity;BMP_temperature;BMP_pressure;BME280_temperature;BME280_humidity;BME280_pressure;Samples;Min_cycle;Max_cycle;Signal;HPM_P1;HPM_P2
2022/01/07 00:02:01;;;;;;;11.73;3.53;;;2.40;99.90;;;;;;5051478;28;20864;-59
2022/01/07 00:04:31;;;;;;;6.73;2.30;;;2.40;99.90;;;;;;5051337;28;20471;-60
2022/01/07 00:06:58;;;;;;;7.30;3.23;;;2.50;99.90;;;;;;5054375;28;20494;-59
2022/01/07 00:09:24;;;;;;;5.13;2.90;;;2.50;99.90;;;;;;5055685;28;20468;-59
2022/01/07 00:11:51;;;;;;;11.43;3.33;;;2.40;99.90;;;;;;5055662;28;20444;-60
2022/01/07 00:14:18;;;;;;;7.90;3.67;;;2.50;99.90;;;;;;5055785;28;20462;-60
2022/01/07 00:16:45;;;;;;;13.40;3.77;;;2.50;99.90;;;;;;5055065;28;20444;-60
2022/01/07 00:19:12;;;;;;;9.83;4.07;;;2.50;99.90;;;;;;5055475;28;20526;-61
2022/01/07 00:21:40;;;;;;;7.83;3.57;;;2.50;99.90;;;;;;5055640;28;20587;-59
2022/01/07 00:24:07;;;;;;;7.90;3.97;;;2.40;99.90;;;;;;5056058;28;20444;-58
2022/01/07 00:26:34;;;;;;;11.33;3.50;;;2.40;1.00;;;;;;5055801;28;20480;-58
2022/01/07 00:29:01;;;;;;;9.87;3.57;;;2.50;1.00;;;;;;5055230;28;20877;-58
2022/01/07 00:31:28;;;;;;;8.53;3.90;;;2.50;1.00;;;;;;5055524;28;20498;-58
2022/01/07 00:33:54;;;;;;;8.13;3.13;;;2.50;1.00;;;;;;5055361;28;20506;-56
2022/01/07 00:36:21;;;;;;;9.17;3.60;;;2.50;1.00;;;;;;5055265;28;20857;-58
2022/01/07 00:38:49;;;;;;;8.90;3.10;;;2.50;1.00;;;;;;5054915;28;20852;-58
2022/01/07 00:41:16;;;;;;;10.20;3.73;;;2.50;1.00;;;;;;5055249;28;20485;-57
2022/01/07 00:43:43;;;;;;;9.43;3.57;;;2.50;1.00;;;;;;5055343;28;20458;-58
2022/01/07 00:46:09;;;;;;;9.07;3.77;;;2.50;99.90;;;;;;5054515;28;20501;-58
2022/01/07 00:48:36;;;;;;;7.83;3.27;;;2.50;99.90;;;;;;5054902;28;20491;-57
2022/01/07 00:51:03;;;;;;;8.73;3.60;;;2.50;99.90;;;;;;5054989;28;20452;-56
2022/01/07 00:53:29;;;;;;;5.97;3.13;;;2.60;99.90;;;;;;5055411;28;20455;-58
2022/01/07 00:55:57;;;;;;;8.03;3.40;;;2.50;99.90;;;;;;5055105;28;20455;-59
2022/01/07 00:58:24;;;;;;;6.93;3.20;;;2.60;99.90;;;;;;5054671;28;20448;-58
2022/01/07 01:00:51;;;;;;;9.57;3.87;;;2.60;99.90;;;;;;5054487;28;20503;-58
2022/01/07 01:03:18;;;;;;;7.77;3.80;;;2.60;99.90;;;;;;5054473;28;20837;-58
2022/01/07 01:05:45;;;;;;;11.63;3.70;;;2.60;99.90;;;;;;5054799;28;20448;-58
2022/01/07 01:08:12;;;;;;;7.70;3.43;;;2.50;99.90;;;;;;5054298;28;20546;-58
2022/01/07 01:10:39;;;;;;;7.63;3.07;;;2.50;99.90;;;;;;5054692;28;20517;-59
2022/01/07 01:13:07;;;;;;;4.43;2.87;;;2.50;99.90;;;;;;5054364;28;20455;-58
2022/01/07 01:15:34;;;;;;;6.73;3.00;;;2.50;99.90;;;;;;5054893;28;20514;-57
2022/01/07 01:18:01;;;;;;;7.00;3.30;;;2.50;99.90;;;;;;5054146;28;20448;-57
2022/01/07 01:20:28;;;;;;;8.10;3.40;;;2.50;99.90;;;;;;5054022;28;20479;-54
2022/01/07 01:22:55;;;;;;;6.63;3.20;;;2.60;99.90;;;;;;5054165;28;20452;-56
2022/01/07 01:25:22;;;;;;;9.17;3.37;;;2.60;99.90;;;;;;5053989;28;20517;-58
2022/01/07 01:27:48;;;;;;;9.07;4.00;;;2.60;99.90;;;;;;5053860;28;20490;-58
2022/01/07 01:30:18;;;;;;;9.67;3.20;;;2.60;99.90;;;;;;5053931;28;20840;-58
2022/01/07 01:32:46;;;;;;;10.07;4.07;;;2.60;99.90;;;;;;5054181;28;20452;-58
2022/01/07 01:35:13;;;;;;;4.40;2.57;;;2.60;99.90;;;;;;5054048;28;20451;-58
2022/01/07 01:37:40;;;;;;;6.20;2.60;;;2.70;99.90;;;;;;5053684;28;20453;-56
2022/01/07 01:40:09;;;;;;;7.20;3.20;;;2.70;99.90;;;;;;5053805;28;20471;-58
2022/01/07 01:42:36;;;;;;;5.47;3.20;;;2.70;99.90;;;;;;5053786;28;20478;-58
2022/01/07 01:45:03;;;;;;;7.70;3.47;;;2.70;99.90;;;;;;5054079;28;20448;-58
2022/01/07 01:47:31;;;;;;;7.27;3.67;;;2.70;99.90;;;;;;5053496;28;20530;-57
2022/01/07 01:49:58;;;;;;;7.97;3.03;;;2.70;99.90;;;;;;5053537;28;20468;-58
2022/01/07 01:52:25;;;;;;;9.50;3.60;;;2.60;99.90;;;;;;5053613;28;20911;-57
2022/01/07 01:54:51;;;;;;;6.57;3.10;;;2.60;99.90;;;;;;5053262;28;20456;-59
2022/01/07 01:57:18;;;;;;;6.07;3.60;;;2.60;99.90;;;;;;5053731;28;20448;-58
2022/01/07 01:59:45;;;;;;;7.33;3.23;;;2.70;99.90;;;;;;5053566;28;20464;-58
2022/01/07 02:02:11;;;;;;;6.97;2.87;;;2.60;99.90;;;;;;5054166;28;20514;-59
2022/01/07 02:04:40;;;;;;;6.13;3.33;;;2.60;99.90;;;;;;5053708;28;20482;-59
2022/01/07 02:07:08;;;;;;;6.80;3.30;;;2.60;99.90;;;;;;5053378;28;20479;-57
2022/01/07 02:09:36;;;;;;;9.30;3.30;;;2.60;99.90;;;;;;5053102;28;20559;-58
2022/01/07 02:12:04;;;;;;;6.10;3.10;;;2.60;99.90;;;;;;5053498;28;20445;-58
2022/01/07 02:14:30;;;;;;;8.20;3.63;;;2.60;99.90;;;;;;5053198;28;20459;-59
2022/01/07 02:17:04;;;;;;;14.53;4.70;;;2.60;99.90;;;;;;5052794;28;20459;-57
2022/01/07 02:19:33;;;;;;;12.73;3.50;;;2.60;1.00;;;;;;5053099;28;20497;-59
2022/01/07 02:21:59;;;;;;;7.10;3.07;;;2.50;1.00;;;;;;5052819;28;20493;-59
2022/01/07 02:24:26;;;;;;;10.53;3.70;;;2.50;1.00;;;;;;5053308;28;20852;-63
2022/01/07 02:26:53;;;;;;;9.57;3.57;;;2.50;1.00;;;;;;5052845;28;20448;-59
2022/01/07 02:29:20;;;;;;;5.50;3.57;;;2.50;1.00;;;;;;5051808;28;20476;-57
2022/01/07 02:31:47;;;;;;;4.67;2.73;;;2.50;1.00;;;;;;5052952;28;20444;-58
2022/01/07 02:34:13;;;;;;;9.40;4.00;;;2.50;1.00;;;;;;5052637;28;20497;-59
2022/01/07 02:36:42;;;;;;;8.13;3.43;;;2.50;1.00;;;;;;5052890;28;20448;-59
2022/01/07 02:39:08;;;;;;;8.93;3.67;;;2.50;1.00;;;;;;5052599;28;20464;-59
2022/01/07 02:41:35;;;;;;;7.20;3.10;;;2.50;1.00;;;;;;5052694;28;20448;-60
2022/01/07 02:44:02;;;;;;;10.17;3.57;;;2.50;1.00;;;;;;5052053;28;20448;-59
2022/01/07 02:46:29;;;;;;;7.93;3.83;;;2.40;1.00;;;;;;5052163;28;20444;-59
2022/01/07 02:48:57;;;;;;;6.67;3.93;;;2.40;1.00;;;;;;5051882;28;20866;-59
2022/01/07 02:51:23;;;;;;;6.87;3.70;;;2.40;1.00;;;;;;5052717;28;20486;-59
2022/01/07 02:53:51;;;;;;;6.07;3.20;;;2.40;1.00;;;;;;5052281;28;20446;-59
2022/01/07 02:56:19;;;;;;;7.27;4.13;;;2.40;4.80;;;;;;5052023;28;20457;-59
2022/01/07 02:58:46;;;;;;;6.47;3.27;;;2.40;1.00;;;;;;5052305;28;20502;-59
2022/01/07 03:01:12;;;;;;;8.17;4.17;;;2.40;14.40;;;;;;5052283;28;20456;-59
2022/01/07 03:03:39;;;;;;;5.90;3.40;;;2.30;44.30;;;;;;5052143;28;20448;-59
2022/01/07 03:06:06;;;;;;;6.33;3.93;;;2.30;99.40;;;;;;5052163;28;20519;-59
2022/01/07 03:08:32;;;;;;;13.03;4.20;;;2.30;99.90;;;;;;5051912;28;20494;-58
2022/01/07 03:11:00;;;;;;;5.70;3.17;;;2.20;99.90;;;;;;5051911;28;20444;-58
2022/01/07 03:13:27;;;;;;;6.77;4.03;;;2.10;99.90;;;;;;5051832;28;20801;-59
2022/01/07 03:15:54;;;;;;;6.87;3.73;;;2.10;99.90;;;;;;5051980;28;20502;-58
2022/01/07 03:18:21;;;;;;;8.13;4.17;;;2.00;99.90;;;;;;5051650;28;20448;-59
2022/01/07 03:20:47;;;;;;;7.30;3.97;;;1.90;99.90;;;;;;5052252;28;20448;-59
2022/01/07 03:23:15;;;;;;;8.17;4.23;;;1.90;99.90;;;;;;5052068;28;20919;-59
2022/01/07 03:25:44;;;;;;;8.80;4.07;;;1.90;99.90;;;;;;5051935;28;20459;-60
2022/01/07 03:28:12;;;;;;;8.17;3.67;;;1.90;99.90;;;;;;5051970;28;20567;-59
2022/01/07 03:30:40;;;;;;;6.27;4.13;;;1.80;99.90;;;;;;5051014;28;20480;-58
2022/01/07 03:33:07;;;;;;;7.70;4.33;;;1.80;99.90;;;;;;5051625;28;20451;-57
2022/01/07 03:35:34;;;;;;;7.73;4.53;;;1.80;99.90;;;;;;5051560;28;20487;-59
2022/01/07 03:38:01;;;;;;;9.83;4.43;;;1.80;1.00;;;;;;5051263;28;20447;-59
2022/01/07 03:40:28;;;;;;;9.97;4.40;;;1.70;1.00;;;;;;5050856;28;20468;-59
2022/01/07 03:42:54;;;;;;;6.70;3.93;;;1.70;1.00;;;;;;5051191;28;20616;-59
2022/01/07 03:45:23;;;;;;;9.77;4.17;;;1.70;1.00;;;;;;5051402;28;20506;-59
2022/01/07 03:47:51;;;;;;;10.53;5.33;;;1.70;1.00;;;;;;5051335;28;20510;-59
2022/01/07 03:50:20;;;;;;;7.73;4.43;;;1.60;1.00;;;;;;5051246;28;20468;-59
2022/01/07 03:52:48;;;;;;;9.50;4.03;;;1.60;1.00;;;;;;5051263;28;20472;-58
2022/01/07 03:55:20;;;;;;;7.07;4.40;;;1.70;1.00;;;;;;5051582;28;20538;-56
2022/01/07 03:57:47;;;;;;;8.73;4.90;;;1.60;1.00;;;;;;5051236;28;20505;-58
2022/01/07 04:00:18;;;;;;;6.10;3.70;;;1.60;1.00;;;;;;5051348;28;20475;-58
2022/01/07 04:02:47;;;;;;;6.87;4.30;;;1.60;1.00;;;;;;5052064;28;20866;-59
2022/01/07 04:05:15;;;;;;;9.20;4.60;;;1.60;1.00;;;;;;5051348;28;20455;-59
2022/01/07 04:07:42;;;;;;;12.27;4.60;;;1.50;1.00;;;;;;5050878;28;20475;-58
2022/01/07 04:10:09;;;;;;;7.60;4.40;;;1.50;1.00;;;;;;5051046;28;20922;-59
2022/01/07 04:12:36;;;;;;;7.57;4.23;;;1.50;1.00;;;;;;5052121;28;20457;-59
2022/01/07 04:15:08;;;;;;;8.27;4.67;;;1.40;1.00;;;;;;5052287;28;20518;-59
2022/01/07 04:17:35;;;;;;;7.60;3.87;;;1.40;1.00;;;;;;5051308;28;21093;-58
2022/01/07 04:20:05;;;;;;;10.83;5.23;;;1.50;1.00;;;;;;5051200;28;20841;-58
2022/01/07 04:22:33;;;;;;;9.13;4.57;;;1.50;1.00;;;;;;5050871;28;20452;-58
2022/01/07 04:24:59;;;;;;;8.23;4.50;;;1.50;1.00;;;;;;5050925;28;20454;-58
2022/01/07 04:27:26;;;;;;;7.83;4.40;;;1.50;1.00;;;;;;5050657;28;20455;-59
2022/01/07 04:29:53;;;;;;;8.63;4.30;;;1.50;1.00;;;;;;5050756;28;20479;-59
2022/01/07 04:32:19;;;;;;;9.03;5.17;;;1.50;1.00;;;;;;5050634;28;20451;-59
2022/01/07 04:34:46;;;;;;;6.80;3.50;;;1.60;1.00;;;;;;5051004;28;20498;-58
2022/01/07 04:37:14;;;;;;;11.33;4.57;;;1.60;1.00;;;;;;5050925;28;20448;-59
2022/01/07 04:39:41;;;;;;;8.50;4.87;;;1.60;1.00;;;;;;5051047;28;20533;-59
2022/01/07 04:42:08;;;;;;;8.57;4.97;;;1.60;1.00;;;;;;5051149;28;20513;-59
2022/01/07 04:44:40;;;;;;;8.43;4.77;;;1.60;1.00;;;;;;5050642;28;20550;-59
2022/01/07 04:47:06;;;;;;;10.67;4.23;;;1.60;1.00;;;;;;5050568;28;20461;-58
2022/01/07 04:49:33;;;;;;;6.10;4.53;;;1.60;1.00;;;;;;5050413;28;20500;-59
2022/01/07 04:52:00;;;;;;;10.80;4.73;;;1.60;1.00;;;;;;5051125;28;21011;-59
2022/01/07 04:54:28;;;;;;;6.57;4.93;;;1.70;1.00;;;;;;5054071;28;20455;-59
2022/01/07 04:56:54;;;;;;;10.57;4.87;;;1.70;1.00;;;;;;5054264;28;20868;-59
2022/01/07 04:59:21;;;;;;;7.30;4.57;;;1.70;1.00;;;;;;5054256;28;20518;-57
2022/01/07 05:01:48;;;;;;;9.27;4.40;;;1.70;1.00;;;;;;5053937;28;20443;-59
2022/01/07 05:04:15;;;;;;;6.43;4.10;;;1.70;1.00;;;;;;5054327;28;20531;-59
2022/01/07 05:06:45;;;;;;;6.87;4.60;;;1.80;1.00;;;;;;5053898;28;20860;-57
2022/01/07 05:09:14;;;;;;;7.83;4.10;;;1.80;1.00;;;;;;5054199;28;20483;-59
2022/01/07 05:11:43;;;;;;;4.67;3.37;;;1.80;1.00;;;;;;5054045;28;20463;-59
2022/01/07 05:14:09;;;;;;;9.77;4.37;;;1.80;1.00;;;;;;5054058;28;20463;-58
2022/01/07 05:16:36;;;;;;;5.50;3.23;;;1.80;1.00;;;;;;5053745;28;20962;-58
2022/01/07 05:19:03;;;;;;;8.00;3.73;;;1.80;1.00;;;;;;5053198;28;20990;-59
2022/01/07 05:21:30;;;;;;;9.13;4.50;;;1.80;1.00;;;;;;5054465;28;20452;-59
2022/01/07 05:23:57;;;;;;;8.40;3.80;;;1.90;1.00;;;;;;5053981;28;20460;-59
2022/01/07 05:26:24;;;;;;;8.07;3.50;;;1.90;1.00;;;;;;5053999;28;20931;-59
2022/01/07 05:28:52;;;;;;;8.30;3.80;;;1.90;1.00;;;;;;5053459;28;20488;-59
2022/01/07 05:31:19;;;;;;;9.50;3.50;;;1.90;1.00;;;;;;5053805;28;20475;-58
2022/01/07 05:33:45;;;;;;;6.20;3.63;;;1.80;1.00;;;;;;5050477;28;20456;-59
2022/01/07 05:36:12;;;;;;;8.23;3.27;;;1.80;1.00;;;;;;5053188;28;20509;-58
2022/01/07 05:38:39;;;;;;;8.90;3.83;;;1.80;1.00;;;;;;5053567;28;20475;-58
2022/01/07 05:41:05;;;;;;;4.17;3.10;;;1.80;1.00;;;;;;5054328;28;20535;-58
2022/01/07 05:43:32;;;;;;;4.53;3.07;;;1.80;1.00;;;;;;5053592;28;20444;-58
2022/01/07 05:46:00;;;;;;;8.83;4.17;;;1.80;1.00;;;;;;5052863;28;20455;-59
2022/01/07 05:48:26;;;;;;;10.13;3.57;;;1.80;1.00;;;;;;5053424;28;20480;-59
2022/01/07 05:50:53;;;;;;;9.23;3.70;;;1.80;1.00;;;;;;5053375;28;21052;-59
2022/01/07 05:53:20;;;;;;;7.63;3.50;;;1.70;1.00;;;;;;5053266;28;20520;-59
2022/01/07 05:55:47;;;;;;;8.33;4.37;;;1.70;1.00;;;;;;5053325;28;20455;-59
2022/01/07 05:58:13;;;;;;;9.37;3.87;;;1.60;1.00;;;;;;5053080;28;20454;-59
2022/01/07 06:00:40;;;;;;;9.50;3.93;;;1.60;1.00;;;;;;5052900;28;20476;-60
2022/01/07 06:03:08;;;;;;;4.53;3.10;;;1.60;1.00;;;;;;5052943;28;20448;-59
2022/01/07 06:05:35;;;;;;;5.60;3.17;;;1.60;1.00;;;;;;5053111;28;20825;-59
2022/01/07 06:08:01;;;;;;;6.83;4.10;;;1.50;1.00;;;;;;5052738;28;20935;-59
2022/01/07 06:10:28;;;;;;;8.40;4.37;;;1.50;1.00;;;;;;5052677;28;20467;-58
2022/01/07 06:12:55;;;;;;;8.00;4.00;;;1.40;1.00;;;;;;5053393;28;20847;-59
2022/01/07 06:15:21;;;;;;;4.60;3.13;;;1.40;1.00;;;;;;5049496;28;20957;-60
2022/01/07 06:17:48;;;;;;;5.83;4.27;;;1.40;1.00;;;;;;5052606;28;20516;-60
2022/01/07 06:20:18;;;;;;;7.40;4.03;;;1.40;1.00;;;;;;5052126;28;20468;-58
2022/01/07 06:22:45;;;;;;;7.20;4.40;;;1.40;1.00;;;;;;5052525;28;20491;-61
2022/01/07 06:25:12;;;;;;;5.57;4.40;;;1.40;1.00;;;;;;5051996;28;20450;-59
2022/01/07 06:27:39;;;;;;;8.40;4.33;;;1.40;1.00;;;;;;5051899;28;20506;-60
2022/01/07 06:30:07;;;;;;;7.67;3.47;;;1.40;1.00;;;;;;5052199;28;20549;-61
2022/01/07 06:32:34;;;;;;;7.73;4.27;;;1.40;1.00;;;;;;5051824;28;20456;-61
2022/01/07 06:35:02;;;;;;;7.20;4.37;;;1.40;1.00;;;;;;5052084;28;20459;-61
2022/01/07 06:37:30;;;;;;;7.27;4.03;;;1.50;1.00;;;;;;5051495;28;20504;-59
2022/01/07 06:39:58;;;;;;;8.33;4.50;;;1.50;1.00;;;;;;5052175;28;20468;-60
2022/01/07 06:42:25;;;;;;;9.33;4.40;;;1.50;1.00;;;;;;5051707;28;20451;-60
2022/01/07 06:44:52;;;;;;;6.23;3.97;;;1.50;1.00;;;;;;5051874;28;20455;-60
2022/01/07 06:47:19;;;;;;;6.80;4.87;;;1.50;1.00;;;;;;5051411;28;20456;-61
2022/01/07 06:49:45;;;;;;;8.23;4.17;;;1.50;1.00;;;;;;5051326;28;20480;-60
2022/01/07 06:52:12;;;;;;;7.67;4.03;;;1.50;1.00;;;;;;5052488;28;20447;-60
2022/01/07 06:54:40;;;;;;;7.87;4.63;;;1.50;1.00;;;;;;5051735;28;20453;-60
2022/01/07 06:57:07;;;;;;;7.40;4.67;;;1.60;1.00;;;;;;5051120;28;20956;-60
2022/01/07 06:59:34;;;;;;;7.20;5.10;;;1.60;1.00;;;;;;5051599;28;20866;-61
2022/01/07 07:02:01;;;;;;;7.43;4.23;;;1.60;1.00;;;;;;5051430;28;20506;-61
2022/01/07 07:04:29;;;;;;;7.47;5.40;;;1.70;1.00;;;;;;5051437;28;20459;-63
2022/01/07 07:06:56;;;;;;;7.83;4.90;;;1.70;1.00;;;;;;5050662;28;20443;-62
2022/01/07 07:09:23;;;;;;;5.23;3.37;;;1.70;1.00;;;;;;5051021;28;20513;-61
2022/01/07 07:11:51;;;;;;;9.37;5.53;;;1.70;1.00;;;;;;5051699;28;20518;-61
2022/01/07 07:14:18;;;;;;;7.30;5.23;;;1.70;1.00;;;;;;5051254;28;20833;-61
2022/01/07 07:16:44;;;;;;;8.50;5.83;;;1.80;1.00;;;;;;5050488;28;20455;-61
2022/01/07 07:19:11;;;;;;;10.93;5.53;;;1.80;1.00;;;;;;5050996;28;20490;-62
2022/01/07 07:21:38;;;;;;;8.03;5.63;;;1.80;1.00;;;;;;5051827;28;20810;-61
2022/01/07 07:24:05;;;;;;;11.97;5.30;;;1.80;1.00;;;;;;5051108;28;20452;-60
2022/01/07 07:26:32;;;;;;;7.50;5.17;;;1.80;1.00;;;;;;5051589;28;20947;-61
2022/01/07 07:29:00;;;;;;;11.07;6.50;;;1.80;1.00;;;;;;5052782;28;20998;-60
2022/01/07 07:31:28;;;;;;;9.13;6.27;;;1.90;1.00;;;;;;5050970;28;20451;-60
2022/01/07 07:34:08;;;;;;;12.67;7.30;;;1.90;1.00;;;;;;5051035;28;20444;-61
2022/01/07 07:36:35;;;;;;;7.37;5.53;;;2.00;1.00;;;;;;5050405;28;20455;-61
2022/01/07 07:39:05;;;;;;;9.00;6.20;;;2.00;1.00;;;;;;5052668;28;20472;-60
2022/01/07 07:41:33;;;;;;;10.93;6.70;;;2.10;1.00;;;;;;5033177;28;20515;-59
2022/01/07 07:44:02;;;;;;;10.03;6.03;;;2.10;1.00;;;;;;5030894;28;20449;-59
2022/01/07 07:46:32;;;;;;;14.67;6.80;;;2.10;1.00;;;;;;5030641;28;20960;-58
2022/01/07 07:49:00;;;;;;;9.30;5.93;;;2.20;1.00;;;;;;5030378;28;21002;-56
2022/01/07 07:51:27;;;;;;;10.07;6.20;;;2.20;1.00;;;;;;5031259;28;20489;-57
2022/01/07 07:53:55;;;;;;;10.10;7.13;;;2.20;1.00;;;;;;5031306;28;20836;-57
2022/01/07 07:56:22;;;;;;;10.87;6.10;;;2.20;1.00;;;;;;5030498;28;20459;-56
2022/01/07 07:58:49;;;;;;;8.00;5.90;;;2.20;1.00;;;;;;5031246;28;20466;-58
2022/01/07 08:01:18;;;;;;;8.40;5.50;;;2.20;1.00;;;;;;5030651;28;20499;-59
2022/01/07 08:03:45;;;;;;;8.87;6.10;;;2.20;1.00;;;;;;5030952;28;20506;-57
2022/01/07 08:06:12;;;;;;;7.03;5.77;;;2.20;1.00;;;;;;5030834;28;21416;-58
2022/01/07 08:08:39;;;;;;;11.27;5.87;;;2.20;1.00;;;;;;5030861;28;20842;-60
2022/01/07 08:11:09;;;;;;;10.53;5.87;;;2.20;1.00;;;;;;5031119;28;20973;-59
2022/01/07 08:16:19;;;;;;;10.53;5.73;;;2.30;1.00;;;;;;5029301;28;20433;-59
2022/01/07 08:18:49;;;;;;;9.57;5.80;;;2.30;1.00;;;;;;5030993;28;20469;-59
2022/01/07 08:21:16;;;;;;;11.37;5.10;;;2.30;1.00;;;;;;5030935;28;20978;-59
2022/01/07 08:23:46;;;;;;;8.83;5.50;;;2.30;1.00;;;;;;5030983;28;20453;-60
2022/01/07 08:26:14;;;;;;;10.47;5.90;;;2.30;1.00;;;;;;5030503;28;20451;-58
2022/01/07 08:28:45;;;;;;;7.50;5.67;;;2.40;1.00;;;;;;5032841;28;20444;-59
2022/01/07 08:31:25;;;;;;;8.53;5.43;;;2.40;1.00;;;;;;5034276;28;20453;-58
2022/01/07 08:36:37;;;;;;;9.07;5.07;;;2.40;1.00;;;;;;5034086;28;20564;-57
2022/01/07 08:39:07;;;;;;;7.70;4.30;;;2.50;1.00;;;;;;5034534;28;20468;-58
2022/01/07 08:41:35;;;;;;;7.37;4.60;;;2.50;1.00;;;;;;5046247;28;20942;-57
2022/01/07 08:44:02;;;;;;;7.87;5.17;;;2.50;1.00;;;;;;5054082;28;20448;-58
2022/01/07 08:46:29;;;;;;;9.37;5.67;;;2.50;1.00;;;;;;5053977;28;21097;-61
2022/01/07 08:48:58;;;;;;;9.40;5.80;;;2.60;1.00;;;;;;5053899;28;20476;-58
2022/01/07 08:51:26;;;;;;;10.43;5.30;;;2.60;1.00;;;;;;5053956;28;20444;-57
2022/01/07 08:53:53;;;;;;;7.50;4.90;;;2.60;1.00;;;;;;5053945;28;20551;-59
2022/01/07 08:56:23;;;;;;;9.40;4.97;;;2.60;1.00;;;;;;5053425;28;20459;-59
2022/01/07 08:58:51;;;;;;;7.43;5.40;;;2.70;1.00;;;;;;5054063;28;20482;-58
2022/01/07 09:01:17;;;;;;;7.80;5.27;;;2.70;1.00;;;;;;5053566;28;20858;-59
2022/01/07 09:03:44;;;;;;;11.23;5.10;;;2.70;1.00;;;;;;5054302;28;20460;-64
2022/01/07 09:06:12;;;;;;;8.97;5.63;;;2.70;1.00;;;;;;5053181;28;20451;-64
2022/01/07 09:08:39;;;;;;;7.27;5.13;;;2.80;1.00;;;;;;5053442;28;20455;-64
2022/01/07 09:11:06;;;;;;;7.63;4.40;;;2.80;1.00;;;;;;5053749;28;20479;-65
2022/01/07 09:13:33;;;;;;;7.23;4.87;;;2.80;1.00;;;;;;5053574;28;20456;-64
2022/01/07 09:15:59;;;;;;;8.30;5.13;;;2.80;1.00;;;;;;5053420;28;20459;-64
2022/01/07 09:18:26;;;;;;;5.43;3.87;;;2.80;1.00;;;;;;5053271;28;20482;-62
2022/01/07 09:20:54;;;;;;;6.43;4.77;;;2.90;1.00;;;;;;5053075;28;21152;-62
2022/01/07 09:23:22;;;;;;;6.83;4.57;;;2.90;1.00;;;;;;5054341;28;20459;-61
2022/01/07 09:25:49;;;;;;;6.93;3.93;;;3.00;1.00;;;;;;5054423;28;20201;-61
2022/01/07 09:28:15;;;;;;;5.80;4.33;;;3.00;1.00;;;;;;5054253;28;20455;-62
2022/01/07 09:30:42;;;;;;;5.37;4.23;;;3.10;1.00;;;;;;5053093;28;20484;-60
2022/01/07 09:33:08;;;;;;;6.00;4.10;;;3.10;1.00;;;;;;5053245;28;20456;-60
2022/01/07 09:35:35;;;;;;;6.43;3.77;;;3.20;1.00;;;;;;5053204;28;20213;-61
2022/01/07 09:38:04;;;;;;;6.30;3.73;;;3.20;1.00;;;;;;5053077;28;21192;-62
2022/01/07 09:40:33;;;;;;;6.13;3.70;;;3.20;1.00;;;;;;5053309;28;20460;-61
2022/01/07 09:43:01;;;;;;;5.13;3.73;;;3.20;1.00;;;;;;5053011;28;20456;-60
2022/01/07 09:45:30;;;;;;;4.07;3.60;;;3.30;1.00;;;;;;5052610;28;20456;-60
2022/01/07 09:47:57;;;;;;;4.87;3.80;;;3.30;1.00;;;;;;5052565;28;20451;-62
2022/01/07 09:50:26;;;;;;;5.93;3.30;;;3.30;1.00;;;;;;5053137;28;20488;-62
2022/01/07 09:52:53;;;;;;;6.70;3.73;;;3.30;1.00;;;;;;5052759;28;20838;-62
2022/01/07 09:55:20;;;;;;;5.57;3.70;;;3.30;1.00;;;;;;5052750;28;20456;-61
2022/01/07 09:57:48;;;;;;;5.67;3.80;;;3.30;1.00;;;;;;5052754;28;20823;-61
2022/01/07 10:00:15;;;;;;;8.97;4.07;;;3.30;1.00;;;;;;5052430;28;20468;-60
2022/01/07 10:03:00;;;;;;;5.00;3.43;;;3.30;1.00;;;;;;5052961;28;20207;-63
2022/01/07 10:05:27;;;;;;;5.57;3.60;;;3.30;1.00;;;;;;5052261;28;20548;-63
2022/01/07 10:07:54;;;;;;;6.43;3.60;;;3.30;1.00;;;;;;5052527;28;20213;-62
2022/01/07 10:10:21;;;;;;;7.20;3.70;;;3.30;1.00;;;;;;5052888;28;20584;-63
2022/01/07 10:12:59;;;;;;;5.53;3.83;;;3.30;1.00;;;;;;5052374;28;20201;-64
2022/01/07 10:15:27;;;;;;;9.87;3.80;;;3.30;1.00;;;;;;5052214;28;20460;-62
2022/01/07 10:17:56;;;;;;;4.37;3.40;;;3.30;1.00;;;;;;5052634;28;20452;-62
2022/01/07 10:20:25;;;;;;;3.73;3.13;;;3.30;1.00;;;;;;5052303;28;20221;-56
2022/01/07 10:22:54;;;;;;;6.37;4.20;;;3.40;1.00;;;;;;5052261;28;20539;-60
2022/01/07 10:25:24;;;;;;;7.73;3.80;;;3.40;1.00;;;;;;5052031;28;20551;-60
2022/01/07 10:27:51;;;;;;;7.57;3.97;;;3.40;1.00;;;;;;5052801;28;20209;-62
2022/01/07 10:30:25;;;;;;;6.73;3.23;;;3.40;1.00;;;;;;5052214;28;20495;-61
2022/01/07 10:32:52;;;;;;;4.97;3.67;;;3.40;1.00;;;;;;5052344;28;20574;-59
2022/01/07 10:35:21;;;;;;;4.70;3.57;;;3.40;1.00;;;;;;5051910;28;20456;-65
2022/01/07 10:37:54;;;;;;;4.40;3.00;;;3.40;1.00;;;;;;5051883;28;20453;-64
2022/01/07 10:40:30;;;;;;;4.83;3.47;;;3.40;1.00;;;;;;5052058;28;20229;-64
2022/01/07 10:43:09;;;;;;;7.50;3.73;;;3.40;1.00;;;;;;5052170;28;20436;-62
2022/01/07 10:45:37;;;;;;;4.60;3.17;;;3.50;1.00;;;;;;5051738;28;20865;-64
2022/01/07 10:48:06;;;;;;;7.60;3.50;;;3.50;1.00;;;;;;5051633;28;20757;-64
2022/01/07 10:50:37;;;;;;;8.30;3.20;;;3.50;1.00;;;;;;5051015;28;20496;-61
2022/01/07 10:53:26;;;;;;;4.23;3.40;;;3.60;1.00;;;;;;5051831;28;20448;-60
2022/01/07 10:56:06;;;;;;;4.83;3.27;;;3.60;1.00;;;;;;5053937;28;20205;-61
2022/01/07 10:58:55;;;;;;;3.03;2.63;;;3.60;1.00;;;;;;5053316;28;20190;-59
2022/01/07 11:01:33;;;;;;;5.50;3.10;;;3.60;1.00;;;;;;5051767;28;20217;-60
2022/01/07 11:04:01;;;;;;;4.17;2.80;;;3.60;1.00;;;;;;5051782;28;20237;-57
2022/01/07 11:06:30;;;;;;;3.80;2.70;;;3.60;1.00;;;;;;5052531;28;20456;-62
2022/01/07 11:08:58;;;;;;;4.47;3.00;;;3.60;1.00;;;;;;5054023;28;20907;-62
2022/01/07 11:11:26;;;;;;;3.33;2.90;;;3.60;1.00;;;;;;5053223;28;20492;-61
2022/01/07 11:13:53;;;;;;;5.97;3.43;;;3.60;1.00;;;;;;5051562;28;20460;-62
2022/01/07 11:16:20;;;;;;;4.80;3.33;;;3.60;1.00;;;;;;5050794;28;20263;-62
2022/01/07 11:18:50;;;;;;;5.60;3.20;;;3.60;1.00;;;;;;5051186;28;20467;-63
2022/01/07 11:21:20;;;;;;;3.27;2.73;;;3.60;1.00;;;;;;5051285;28;20448;-62
2022/01/07 11:23:47;;;;;;;4.20;3.17;;;3.60;1.00;;;;;;5051020;28;20213;-61
2022/01/07 11:26:16;;;;;;;5.57;2.90;;;3.70;1.00;;;;;;5051084;28;20206;-60
2022/01/07 11:28:58;;;;;;;4.67;3.03;;;3.70;1.00;;;;;;5050954;28;20467;-60
2022/01/07 11:31:25;;;;;;;4.40;3.43;;;3.80;1.00;;;;;;5051526;28;20576;-58
2022/01/07 11:34:26;;;;;;;3.80;2.73;;;3.80;1.00;;;;;;5050923;28;20209;-57
2022/01/07 11:36:53;;;;;;;4.23;3.30;;;3.90;1.00;;;;;;5050983;28;20205;-60
2022/01/07 11:39:21;;;;;;;5.13;3.20;;;3.90;1.00;;;;;;5051153;28;20257;-63
2022/01/07 11:41:50;;;;;;;3.97;3.10;;;3.90;1.00;;;;;;5051005;28;20556;-61
2022/01/07 11:44:23;;;;;;;4.60;3.30;;;3.90;1.00;;;;;;5050880;28;20672;-59
2022/01/07 11:46:50;;;;;;;4.83;3.00;;;3.90;99.90;;;;;;5050257;28;20668;-60
2022/01/07 11:49:33;;;;;;;3.07;2.53;;;3.90;99.90;;;;;;5050998;28;20233;-57
2022/01/07 11:52:33;;;;;;;6.63;3.10;;;3.90;99.90;;;;;;5050608;28;20229;-60
2022/01/07 11:55:26;;;;;;;4.53;3.20;;;3.80;99.90;;;;;;5050917;28;20515;-60
2022/01/07 11:57:55;;;;;;;3.53;3.00;;;3.90;1.00;;;;;;5050630;28;20718;-60
2022/01/07 12:00:56;;;;;;;3.83;2.87;;;3.90;1.00;;;;;;5050851;28;20222;-63
2022/01/07 12:03:39;;;;;;;4.03;2.80;;;3.90;1.00;;;;;;5055003;28;20312;-61
2022/01/07 12:06:44;;;;;;;6.73;3.20;;;3.90;1.00;;;;;;5054848;28;20223;-61
2022/01/07 12:09:19;;;;;;;5.50;3.03;;;4.00;1.00;;;;;;5054772;28;20725;-61
2022/01/07 12:11:53;;;;;;;3.47;2.67;;;4.00;1.00;;;;;;5054967;28;20559;-61
2022/01/07 12:14:22;;;;;;;4.23;2.80;;;4.10;99.90;;;;;;5055047;28;20304;-61
2022/01/07 12:16:55;;;;;;;6.13;2.83;;;4.00;1.00;;;;;;5054388;28;20669;-62
2022/01/07 12:19:57;;;;;;;4.60;2.73;;;4.10;1.00;;;;;;5054770;28;20597;-59
2022/01/07 12:22:25;;;;;;;4.43;2.37;;;4.10;1.00;;;;;;5017089;28;20202;-59
2022/01/07 12:25:00;;;;;;;3.33;2.43;;;4.10;1.00;;;;;;5055057;28;20211;-58
2022/01/07 12:27:27;;;;;;;4.47;2.53;;;4.20;1.00;;;;;;5054268;28;20214;-58
2022/01/07 12:29:56;;;;;;;3.83;2.67;;;4.20;99.90;;;;;;5054379;28;20285;-59
2022/01/07 12:32:31;;;;;;;3.53;2.40;;;4.10;1.00;;;;;;5054415;28;20650;-60
2022/01/07 12:34:58;;;;;;;4.63;3.17;;;4.10;1.00;;;;;;5034351;28;20218;-59
2022/01/07 12:37:25;;;;;;;3.90;2.90;;;4.10;1.00;;;;;;5034228;28;20616;-59
2022/01/07 12:39:55;;;;;;;3.93;2.90;;;4.10;1.00;;;;;;5034252;28;20236;-58
2022/01/07 12:42:23;;;;;;;5.13;2.77;;;4.20;1.00;;;;;;5034476;28;20561;-59
2022/01/07 12:44:54;;;;;;;6.37;2.87;;;4.10;1.00;;;;;;5040831;28;20209;-58
2022/01/07 12:47:22;;;;;;;3.40;2.70;;;4.10;1.00;;;;;;5054142;28;20218;-59
2022/01/07 12:49:51;;;;;;;4.07;3.00;;;4.10;1.00;;;;;;5054441;28;20647;-59
2022/01/07 12:52:19;;;;;;;6.07;3.07;;;4.10;1.00;;;;;;5053812;28;20229;-59
2022/01/07 12:54:59;;;;;;;5.90;2.60;;;4.20;1.00;;;;;;5054176;28;20218;-58
2022/01/07 12:57:33;;;;;;;5.90;2.77;;;4.20;1.00;;;;;;5053877;28;20189;-59
2022/01/07 13:00:07;;;;;;;4.47;2.87;;;4.10;1.00;;;;;;5054455;28;20225;-57
2022/01/07 13:02:34;;;;;;;4.13;3.10;;;4.20;1.00;;;;;;5054054;28;20206;-57
2022/01/07 13:05:14;;;;;;;4.10;2.93;;;4.20;1.00;;;;;;5054059;28;20210;-57
2022/01/07 13:07:42;;;;;;;5.80;3.10;;;4.20;1.00;;;;;;5053627;28;20246;-58
2022/01/07 13:10:09;;;;;;;4.03;2.90;;;4.20;1.00;;;;;;5053753;28;20261;-58
2022/01/07 13:12:37;;;;;;;6.53;2.80;;;4.30;1.00;;;;;;5054457;28;20211;-59
2022/01/07 13:15:06;;;;;;;4.40;3.30;;;4.30;1.00;;;;;;5052937;28;20219;-59
2022/01/07 13:17:32;;;;;;;6.30;2.80;;;4.30;1.00;;;;;;5053824;28;20205;-59
2022/01/07 13:19:59;;;;;;;8.97;4.10;;;4.30;1.00;;;;;;5053300;28;20885;-61